createdAt,value
2018-12-24T00:00:51.298Z,1007.43
2018-12-24T00:01:51.291Z,1007.44
2018-12-24T00:02:51.278Z,1007.47
2018-12-24T00:03:51.270Z,1007.51
2018-12-24T00:04:51.259Z,1007.49
2018-12-24T00:05:51.254Z,1007.49
2018-12-24T00:06:51.245Z,1007.48
2018-12-24T00:07:51.235Z,1007.53
2018-12-24T00:08:51.232Z,1007.51
2018-12-24T00:09:51.220Z,1007.58
2018-12-24T00:10:51.212Z,1007.55
2018-12-24T00:11:51.201Z,1007.59
2018-12-24T00:12:51.254Z,1007.60
2018-12-24T00:13:51.191Z,1007.61
2018-12-24T00:14:51.179Z,1007.61
2018-12-24T00:15:51.172Z,1007.65
2018-12-24T00:16:51.160Z,1007.66
2018-12-24T00:17:51.158Z,1007.66
2018-12-24T00:18:51.146Z,1007.67
2018-12-24T00:19:51.140Z,1007.67
2018-12-24T00:20:51.132Z,1007.68
2018-12-24T00:21:51.120Z,1007.73
2018-12-24T00:22:51.113Z,1007.77
2018-12-24T00:23:51.109Z,1007.71
2018-12-24T00:24:51.096Z,1007.80
2018-12-24T00:25:51.133Z,1007.81
2018-12-24T00:26:51.079Z,1007.87
2018-12-24T00:27:51.073Z,1007.85
2018-12-24T00:28:51.063Z,1007.88
2018-12-24T00:29:51.057Z,1007.90
2018-12-24T00:30:51.043Z,1007.92
2018-12-24T00:31:51.037Z,1007.93
2018-12-24T00:32:51.029Z,1007.90
2018-12-24T00:33:51.021Z,1007.93
2018-12-24T00:34:51.015Z,1007.93
2018-12-24T00:35:51.001Z,1007.99
2018-12-24T00:36:50.995Z,1008.02
2018-12-24T00:37:50.991Z,1008.05
2018-12-24T00:38:50.975Z,1008.11
2018-12-24T00:39:50.977Z,1008.15
2018-12-24T00:40:50.954Z,1008.14
2018-12-24T00:41:50.946Z,1008.20
2018-12-24T00:42:50.940Z,1008.19
2018-12-24T00:43:50.938Z,1008.19
2018-12-24T00:44:50.921Z,1008.17
2018-12-24T00:45:50.914Z,1008.20
2018-12-24T00:46:50.906Z,1008.18
2018-12-24T00:47:50.896Z,1008.25
2018-12-24T00:48:50.884Z,1008.27
2018-12-24T00:49:50.875Z,1008.25
2018-12-24T00:50:50.866Z,1008.26
2018-12-24T00:51:50.859Z,1008.30
2018-12-24T00:52:50.858Z,1008.30
2018-12-24T00:53:50.838Z,1008.30
2018-12-24T00:54:50.827Z,1008.34
2018-12-24T00:55:50.822Z,1008.33
2018-12-24T00:56:50.815Z,1008.32
2018-12-24T00:57:50.799Z,1008.37
2018-12-24T00:58:50.793Z,1008.31
2018-12-24T00:59:50.783Z,1008.32
2018-12-24T01:00:50.773Z,1008.37
2018-12-24T01:01:50.768Z,1008.40
2018-12-24T01:02:50.754Z,1008.39
2018-12-24T01:03:50.743Z,1008.41
2018-12-24T01:04:50.736Z,1008.36
2018-12-24T01:05:50.730Z,1008.43
2018-12-24T01:06:50.722Z,1008.39
2018-12-24T01:07:50.707Z,1008.41
2018-12-24T01:08:50.698Z,1008.32
2018-12-24T01:09:50.689Z,1008.45
2018-12-24T01:10:50.679Z,1008.42
2018-12-24T01:11:50.667Z,1008.47
2018-12-24T01:12:50.658Z,1008.47
2018-12-24T01:13:50.646Z,1008.52
2018-12-24T01:14:50.638Z,1008.49
2018-12-24T01:15:50.627Z,1008.61
2018-12-24T01:16:50.617Z,1008.60
2018-12-24T01:17:50.621Z,1008.65
2018-12-24T01:18:50.603Z,1008.62
2018-12-24T01:19:50.592Z,1008.66
2018-12-24T01:20:50.579Z,1008.70
2018-12-24T01:21:50.576Z,1008.67
2018-12-24T01:22:50.567Z,1008.72
2018-12-24T01:23:50.549Z,1008.72
2018-12-24T01:24:50.540Z,1008.75
2018-12-24T01:25:50.533Z,1008.77
2018-12-24T01:26:50.519Z,1008.80
2018-12-24T01:27:50.510Z,1008.79
2018-12-24T01:28:50.501Z,1008.80
2018-12-24T01:29:50.488Z,1008.80
2018-12-24T01:30:50.483Z,1008.84
2018-12-24T01:31:50.470Z,1008.81
2018-12-24T01:32:50.455Z,1008.84
2018-12-24T01:33:50.453Z,1008.86
2018-12-24T01:34:50.442Z,1008.89
2018-12-24T01:35:50.430Z,1008.87
2018-12-24T01:36:50.424Z,1008.86
2018-12-24T01:37:50.409Z,1008.89
2018-12-24T01:38:50.409Z,1008.86
2018-12-24T01:39:50.395Z,1008.94
2018-12-24T01:40:50.384Z,1008.98
2018-12-24T01:41:50.375Z,1008.96
2018-12-24T01:42:50.362Z,1008.98
2018-12-24T01:43:50.352Z,1008.99
2018-12-24T01:44:50.344Z,1008.98
2018-12-24T01:45:50.332Z,1008.99
2018-12-24T01:46:50.329Z,1008.97
2018-12-24T01:47:50.316Z,1008.95
2018-12-24T01:48:50.305Z,1008.98
2018-12-24T01:49:50.298Z,1008.96
2018-12-24T01:50:50.287Z,1008.93
2018-12-24T01:51:50.278Z,1008.95
2018-12-24T01:52:50.268Z,1008.94
2018-12-24T01:53:50.257Z,1008.91
2018-12-24T01:54:50.252Z,1008.94
2018-12-24T01:55:50.242Z,1008.92
2018-12-24T01:56:50.228Z,1008.96
2018-12-24T01:57:50.222Z,1008.95
2018-12-24T01:58:50.206Z,1008.93
2018-12-24T01:59:50.201Z,1008.96
2018-12-24T02:00:50.191Z,1008.95
2018-12-24T02:01:50.175Z,1008.96
2018-12-24T02:02:50.172Z,1009.02
2018-12-24T02:03:50.160Z,1009.03
2018-12-24T02:04:50.149Z,1009.07
2018-12-24T02:05:50.140Z,1009.04
2018-12-24T02:06:50.138Z,1009.08
2018-12-24T02:07:50.118Z,1009.08
2018-12-24T02:08:50.112Z,1009.06
2018-12-24T02:09:50.101Z,1009.05
2018-12-24T02:10:50.094Z,1009.08
2018-12-24T02:11:50.086Z,1009.06
2018-12-24T02:12:50.071Z,1009.05
2018-12-24T02:13:50.064Z,1009.06
2018-12-24T02:14:50.052Z,1009.08
2018-12-24T02:15:50.041Z,1009.10
2018-12-24T02:16:50.035Z,1009.16
2018-12-24T02:17:50.024Z,1009.21
2018-12-24T02:18:50.010Z,1009.22
2018-12-24T02:19:50.003Z,1009.21
2018-12-24T02:20:49.994Z,1009.24
2018-12-24T02:21:49.984Z,1009.28
2018-12-24T02:22:49.972Z,1009.31
2018-12-24T02:23:49.969Z,1009.33
2018-12-24T02:24:49.956Z,1009.40
2018-12-24T02:25:49.961Z,1009.40
2018-12-24T02:26:49.934Z,1009.44
2018-12-24T02:27:49.925Z,1009.47
2018-12-24T02:28:49.914Z,1009.48
2018-12-24T02:29:49.906Z,1009.50
2018-12-24T02:30:49.913Z,1009.51
2018-12-24T02:31:49.887Z,1009.55
2018-12-24T02:32:49.877Z,1009.50
2018-12-24T02:33:49.869Z,1009.55
2018-12-24T02:34:49.860Z,1009.59
2018-12-24T02:35:49.848Z,1009.62
2018-12-24T02:36:49.842Z,1009.60
2018-12-24T02:37:49.827Z,1009.61
2018-12-24T02:38:49.815Z,1009.65
2018-12-24T02:39:49.819Z,1009.65
2018-12-24T02:40:49.801Z,1009.66
2018-12-24T02:41:49.792Z,1009.74
2018-12-24T02:42:52.525Z,1009.77
2018-12-24T02:43:49.770Z,1009.74
2018-12-24T02:44:49.761Z,1009.84
2018-12-24T02:45:49.754Z,1009.85
2018-12-24T02:46:49.744Z,1009.88
2018-12-24T02:47:49.733Z,1009.90
2018-12-24T02:48:49.723Z,1009.93
2018-12-24T02:49:49.708Z,1009.91
2018-12-24T02:50:49.704Z,1009.94
2018-12-24T02:51:49.691Z,1009.97
2018-12-24T02:52:49.681Z,1010.02
2018-12-24T02:53:49.673Z,1010.04
2018-12-24T02:54:49.663Z,1010.00
2018-12-24T02:55:49.659Z,1010.05
2018-12-24T02:56:49.643Z,1010.06
2018-12-24T02:57:49.633Z,1010.07
2018-12-24T02:58:49.625Z,1010.11
2018-12-24T02:59:49.613Z,1010.11
2018-12-24T03:00:49.604Z,1010.13
2018-12-24T03:01:49.593Z,1010.15
2018-12-24T03:02:49.584Z,1010.16
2018-12-24T03:03:49.573Z,1010.21
2018-12-24T03:04:49.565Z,1010.22
2018-12-24T03:05:49.554Z,1010.20
2018-12-24T03:06:49.549Z,1010.22
2018-12-24T03:07:49.539Z,1010.25
2018-12-24T03:08:49.527Z,1010.24
2018-12-24T03:09:49.512Z,1010.29
2018-12-24T03:10:49.505Z,1010.24
2018-12-24T03:11:49.501Z,1010.27
2018-12-24T03:12:49.487Z,1010.31
2018-12-24T03:13:49.482Z,1010.28
2018-12-24T03:14:49.469Z,1010.29
2018-12-24T03:15:49.457Z,1010.30
2018-12-24T03:16:49.450Z,1010.35
2018-12-24T03:17:49.437Z,1010.33
2018-12-24T03:18:49.428Z,1010.36
2018-12-24T03:19:49.416Z,1010.37
2018-12-24T03:20:49.412Z,1010.38
2018-12-24T03:21:49.403Z,1010.41
2018-12-24T03:22:49.389Z,1010.42
2018-12-24T03:23:49.378Z,1010.43
2018-12-24T03:24:49.372Z,1010.40
2018-12-24T03:25:49.358Z,1010.45
2018-12-24T03:26:49.351Z,1010.44
2018-12-24T03:27:49.346Z,1010.49
2018-12-24T03:28:49.331Z,1010.50
2018-12-24T03:29:49.318Z,1010.54
2018-12-24T03:30:49.310Z,1010.51
2018-12-24T03:31:49.302Z,1010.58
2018-12-24T03:32:49.292Z,1010.61
2018-12-24T03:33:49.281Z,1010.63
2018-12-24T03:34:49.276Z,1010.69
2018-12-24T03:35:49.260Z,1010.68
2018-12-24T03:36:49.252Z,1010.70
2018-12-24T03:37:49.240Z,1010.70
2018-12-24T03:38:49.234Z,1010.69
2018-12-24T03:39:49.222Z,1010.72
2018-12-24T03:40:49.212Z,1010.75
2018-12-24T03:41:49.201Z,1010.72
2018-12-24T03:42:49.203Z,1010.79
2018-12-24T03:43:49.186Z,1010.80
2018-12-24T03:44:49.176Z,1010.81
2018-12-24T03:45:49.163Z,1010.85
2018-12-24T03:46:49.156Z,1010.86
2018-12-24T03:47:49.145Z,1010.87
2018-12-24T03:48:49.134Z,1010.89
2018-12-24T03:49:49.124Z,1010.89
2018-12-24T03:50:49.114Z,1010.93
2018-12-24T03:51:49.105Z,1010.94
2018-12-24T03:52:49.098Z,1011.02
2018-12-24T03:53:49.082Z,1010.97
2018-12-24T03:54:49.073Z,1011.00
2018-12-24T03:55:49.065Z,1011.05
2018-12-24T03:56:49.054Z,1011.10
2018-12-24T03:57:49.050Z,1011.11
2018-12-24T03:58:49.058Z,1011.14
2018-12-24T03:59:49.033Z,1011.16
2018-12-24T04:00:49.015Z,1011.17
2018-12-24T04:01:49.005Z,1011.20
2018-12-24T04:02:49.007Z,1011.23
2018-12-24T04:03:48.989Z,1011.32
2018-12-24T04:04:48.976Z,1011.34
2018-12-24T04:05:48.967Z,1011.37
2018-12-24T04:06:48.953Z,1011.40
2018-12-24T04:07:48.943Z,1011.42
2018-12-24T04:08:48.937Z,1011.45
2018-12-24T04:09:48.925Z,1011.47
2018-12-24T04:10:48.915Z,1011.53
2018-12-24T04:11:48.906Z,1011.58
2018-12-24T04:12:48.895Z,1011.59
2018-12-24T04:13:48.886Z,1011.58
2018-12-24T04:14:48.878Z,1011.63
2018-12-24T04:15:48.866Z,1011.61
2018-12-24T04:16:48.862Z,1011.67
2018-12-24T04:17:48.856Z,1011.68
2018-12-24T04:18:48.837Z,1011.70
2018-12-24T04:19:48.827Z,1011.70
2018-12-24T04:20:48.815Z,1011.74
2018-12-24T04:21:48.810Z,1011.77
2018-12-24T04:22:48.799Z,1011.87
2018-12-24T04:23:48.784Z,1011.81
2018-12-24T04:24:48.779Z,1011.93
2018-12-24T04:25:48.767Z,1011.91
2018-12-24T04:26:48.755Z,1011.96
2018-12-24T04:27:48.757Z,1012.00
2018-12-24T04:28:48.734Z,1012.03
2018-12-24T04:29:48.724Z,1012.00
2018-12-24T04:30:48.714Z,1012.05
2018-12-24T04:31:48.700Z,1012.10
2018-12-24T04:32:48.693Z,1012.09
2018-12-24T04:33:48.683Z,1012.12
2018-12-24T04:34:48.674Z,1012.16
2018-12-24T04:35:48.664Z,1012.16
2018-12-24T04:36:48.651Z,1012.21
2018-12-24T04:37:48.645Z,1012.23
2018-12-24T04:38:48.638Z,1012.33
2018-12-24T04:39:48.618Z,1012.36
2018-12-24T04:40:48.614Z,1012.35
2018-12-24T04:41:48.604Z,1012.42
2018-12-24T04:42:48.594Z,1012.42
2018-12-24T04:43:48.581Z,1012.48
2018-12-24T04:44:48.698Z,1012.49
2018-12-24T04:45:48.563Z,1012.48
2018-12-24T04:46:48.549Z,1012.38
2018-12-24T04:47:48.540Z,1012.58
2018-12-24T04:48:48.530Z,1012.59
2018-12-24T04:49:48.523Z,1012.63
2018-12-24T04:50:48.510Z,1012.62
2018-12-24T04:51:48.497Z,1012.68
2018-12-24T04:52:48.493Z,1012.67
2018-12-24T04:53:48.479Z,1012.70
2018-12-24T04:54:48.464Z,1012.77
2018-12-24T04:55:48.461Z,1012.87
2018-12-24T04:56:48.445Z,1012.84
2018-12-24T04:57:48.435Z,1012.86
2018-12-24T04:58:48.540Z,1012.87
2018-12-24T04:59:48.419Z,1012.95
2018-12-24T05:00:48.405Z,1012.96
2018-12-24T05:01:48.397Z,1012.99
2018-12-24T05:02:48.387Z,1013.03
2018-12-24T05:03:48.374Z,1013.03
2018-12-24T05:04:48.362Z,1013.01
2018-12-24T05:05:48.361Z,1013.10
2018-12-24T05:06:48.341Z,1013.19
2018-12-24T05:07:48.335Z,1013.22
2018-12-24T05:08:48.322Z,1013.18
2018-12-24T05:09:48.311Z,1013.23
2018-12-24T05:10:48.306Z,1013.28
2018-12-24T05:11:48.293Z,1013.29
2018-12-24T05:12:48.276Z,1013.32
2018-12-24T05:13:48.292Z,1013.29
2018-12-24T05:14:48.259Z,1013.40
2018-12-24T05:15:48.250Z,1013.47
2018-12-24T05:16:48.235Z,1013.45
2018-12-24T05:17:48.228Z,1013.49
2018-12-24T05:18:48.219Z,1013.49
2018-12-24T05:19:48.201Z,1013.50
2018-12-24T05:20:48.194Z,1013.49
2018-12-24T05:21:48.186Z,1013.56
2018-12-24T05:22:48.176Z,1013.62
2018-12-24T05:23:48.161Z,1013.56
2018-12-24T05:24:48.153Z,1013.59
2018-12-24T05:25:48.142Z,1013.66
2018-12-24T05:26:48.133Z,1013.64
2018-12-24T05:27:48.118Z,1013.74
2018-12-24T05:28:48.111Z,1013.70
2018-12-24T05:29:48.101Z,1013.72
2018-12-24T05:30:48.090Z,1013.76
2018-12-24T05:31:48.178Z,1013.72
2018-12-24T05:32:48.078Z,1013.79
2018-12-24T05:33:48.062Z,1013.85
2018-12-24T05:34:48.044Z,1013.82
2018-12-24T05:35:48.043Z,1013.91
2018-12-24T05:36:48.026Z,1013.85
2018-12-24T05:37:48.015Z,1013.97
2018-12-24T05:38:48.009Z,1013.98
2018-12-24T05:39:47.996Z,1014.05
2018-12-24T05:40:47.985Z,1013.96
2018-12-24T05:41:47.977Z,1014.08
2018-12-24T05:42:47.963Z,1014.14
2018-12-24T05:43:49.529Z,1014.04
2018-12-24T05:44:47.947Z,1014.12
2018-12-24T05:45:47.932Z,1014.17
2018-12-24T05:46:47.922Z,1014.08
2018-12-24T05:47:47.915Z,1014.26
2018-12-24T05:48:47.898Z,1014.26
2018-12-24T05:49:47.890Z,1014.33
2018-12-24T05:50:47.881Z,1014.37
2018-12-24T05:51:47.868Z,1014.38
2018-12-24T05:52:47.857Z,1014.43
2018-12-24T05:53:47.848Z,1014.41
2018-12-24T05:54:47.840Z,1014.48
2018-12-24T05:55:47.826Z,1014.45
2018-12-24T05:56:47.817Z,1014.56
2018-12-24T05:57:47.803Z,1014.59
2018-12-24T05:58:47.797Z,1014.59
2018-12-24T05:59:47.785Z,1014.64
2018-12-24T06:00:47.772Z,1014.61
2018-12-24T06:01:47.765Z,1014.71
2018-12-24T06:02:47.752Z,1014.70
2018-12-24T06:03:47.741Z,1014.72
2018-12-24T06:04:47.731Z,1014.71
2018-12-24T06:05:47.718Z,1014.81
2018-12-24T06:06:47.706Z,1014.84
2018-12-24T06:07:47.701Z,1014.84
2018-12-24T06:08:47.687Z,1014.92
2018-12-24T06:09:47.675Z,1014.92
2018-12-24T06:10:47.667Z,1014.96
2018-12-24T06:11:47.718Z,1014.99
2018-12-24T06:12:47.645Z,1014.99
2018-12-24T06:13:47.633Z,1014.95
2018-12-24T06:14:47.621Z,1015.01
2018-12-24T06:15:47.612Z,1015.06
2018-12-24T06:16:47.603Z,1015.13
2018-12-24T06:17:47.590Z,1015.09
2018-12-24T06:18:47.584Z,1015.22
2018-12-24T06:19:47.569Z,1015.16
2018-12-24T06:20:47.556Z,1015.21
2018-12-24T06:21:47.551Z,1015.30
2018-12-24T06:22:47.539Z,1015.29
2018-12-24T06:23:47.528Z,1015.29
2018-12-24T06:24:47.512Z,1015.37
2018-12-24T06:25:47.504Z,1015.42
2018-12-24T06:26:47.492Z,1015.28
2018-12-24T06:27:47.483Z,1015.46
2018-12-24T06:28:47.472Z,1015.47
2018-12-24T06:29:47.460Z,1015.54
2018-12-24T06:30:47.450Z,1015.55
2018-12-24T06:31:47.443Z,1015.59
2018-12-24T06:32:47.428Z,1015.59
2018-12-24T06:33:47.413Z,1015.59
2018-12-24T06:34:47.406Z,1015.69
2018-12-24T06:35:47.395Z,1015.72
2018-12-24T06:36:47.386Z,1015.68
2018-12-24T06:37:47.373Z,1015.75
2018-12-24T06:38:47.362Z,1015.78
2018-12-24T06:39:47.348Z,1015.80
2018-12-24T06:40:47.341Z,1015.78
2018-12-24T06:41:47.334Z,1015.88
2018-12-24T06:42:47.322Z,1015.92
2018-12-24T06:43:47.304Z,1015.89
2018-12-24T06:44:47.294Z,1015.88
2018-12-24T06:45:47.287Z,1015.98
2018-12-24T06:46:47.277Z,1016.00
2018-12-24T06:47:47.282Z,1016.00
2018-12-24T06:48:47.257Z,1015.99
2018-12-24T06:49:47.242Z,1016.03
2018-12-24T06:50:47.230Z,1016.06
2018-12-24T06:51:47.221Z,1016.13
2018-12-24T06:52:47.206Z,1016.11
2018-12-24T06:53:47.197Z,1016.18
2018-12-24T06:54:47.187Z,1016.27
2018-12-24T06:55:47.178Z,1016.31
2018-12-24T06:56:47.164Z,1016.29
2018-12-24T06:57:47.153Z,1016.29
2018-12-24T06:58:47.144Z,1016.36
2018-12-24T06:59:47.133Z,1016.40
2018-12-24T07:00:47.123Z,1016.42
2018-12-24T07:01:47.110Z,1016.46
2018-12-24T07:02:47.100Z,1016.46
2018-12-24T07:03:47.085Z,1016.50
2018-12-24T07:04:47.074Z,1016.51
2018-12-24T07:05:47.097Z,1016.55
2018-12-24T07:06:47.051Z,1016.57
2018-12-24T07:07:47.042Z,1016.64
2018-12-24T07:08:47.030Z,1016.63
2018-12-24T07:09:47.018Z,1016.68
2018-12-24T07:10:47.010Z,1016.70
2018-12-24T07:11:47.004Z,1016.73
2018-12-24T07:12:46.986Z,1016.75
2018-12-24T07:13:46.976Z,1016.79
2018-12-24T07:14:46.973Z,1016.81
2018-12-24T07:15:46.954Z,1016.80
2018-12-24T07:16:46.939Z,1016.88
2018-12-24T07:17:46.931Z,1016.93
2018-12-24T07:18:46.927Z,1016.94
2018-12-24T07:19:46.910Z,1016.86
2018-12-24T07:20:46.897Z,1016.98
2018-12-24T07:21:46.888Z,1016.98
2018-12-24T07:22:46.874Z,1017.02
2018-12-24T07:23:46.865Z,1017.04
2018-12-24T07:24:46.854Z,1017.08
2018-12-24T07:25:46.840Z,1017.09
2018-12-24T07:26:46.838Z,1017.14
2018-12-24T07:27:46.817Z,1017.19
2018-12-24T07:28:46.810Z,1017.14
2018-12-24T07:29:46.797Z,1017.21
2018-12-24T07:30:46.787Z,1017.21
2018-12-24T07:31:46.780Z,1017.26
2018-12-24T07:32:46.774Z,1017.33
2018-12-24T07:33:46.756Z,1017.31
2018-12-24T07:34:46.741Z,1017.30
2018-12-24T07:35:46.737Z,1017.30
2018-12-24T07:36:46.721Z,1017.32
2018-12-24T07:37:46.710Z,1017.44
2018-12-24T07:38:46.697Z,1017.41
2018-12-24T07:39:46.685Z,1017.44
2018-12-24T07:40:46.677Z,1017.49
2018-12-24T07:41:46.664Z,1017.48
2018-12-24T07:42:46.654Z,1017.51
2018-12-24T07:43:46.642Z,1017.56
2018-12-24T07:44:46.627Z,1017.57
2018-12-24T07:45:46.621Z,1017.58
2018-12-24T07:46:46.607Z,1017.69
2018-12-24T07:47:46.595Z,1017.70
2018-12-24T07:48:46.584Z,1017.73
2018-12-24T07:49:46.571Z,1017.79
2018-12-24T07:50:46.562Z,1017.72
2018-12-24T07:51:46.552Z,1017.85
2018-12-24T07:52:46.541Z,1017.93
2018-12-24T07:53:46.527Z,1017.94
2018-12-24T07:54:46.517Z,1017.96
2018-12-24T07:55:46.508Z,1018.00
2018-12-24T07:56:46.493Z,1018.03
2018-12-24T07:57:46.491Z,1018.11
2018-12-24T07:58:46.474Z,1018.18
2018-12-24T07:59:46.458Z,1018.20
2018-12-24T08:00:46.454Z,1018.18
2018-12-24T08:01:46.441Z,1018.29
2018-12-24T08:02:46.422Z,1018.24
2018-12-24T08:03:46.414Z,1018.23
2018-12-24T08:04:46.415Z,1018.37
2018-12-24T08:05:46.391Z,1018.34
2018-12-24T08:06:46.382Z,1018.42
2018-12-24T08:07:46.369Z,1018.50
2018-12-24T08:08:46.358Z,1018.55
2018-12-24T08:09:46.349Z,1018.49
2018-12-24T08:10:46.336Z,1018.56
2018-12-24T08:11:46.324Z,1018.56
2018-12-24T08:12:46.308Z,1018.64
2018-12-24T08:13:46.301Z,1018.71
2018-12-24T08:14:46.286Z,1018.64
2018-12-24T08:15:46.276Z,1018.78
2018-12-24T08:16:46.268Z,1018.78
2018-12-24T08:17:46.253Z,1018.77
2018-12-24T08:18:46.270Z,1018.82
2018-12-24T08:19:46.227Z,1018.79
2018-12-24T08:20:47.480Z,1018.79
2018-12-24T08:21:46.336Z,1018.82
2018-12-24T08:22:46.194Z,1018.84
2018-12-24T08:23:46.187Z,1018.89
2018-12-24T08:24:46.175Z,1018.95
2018-12-24T08:25:46.158Z,1018.97
2018-12-24T08:26:46.150Z,1018.94
2018-12-24T08:27:46.143Z,1018.96
2018-12-24T08:28:46.123Z,1018.91
2018-12-24T08:29:46.117Z,1018.96
2018-12-24T08:30:46.106Z,1018.98
2018-12-24T08:31:46.090Z,1018.98
2018-12-24T08:32:46.080Z,1019.03
2018-12-24T08:33:46.068Z,1019.01
2018-12-24T08:34:46.058Z,1019.06
2018-12-24T08:35:46.045Z,1019.12
2018-12-24T08:36:46.035Z,1019.20
2018-12-24T08:37:46.023Z,1019.12
2018-12-24T08:38:46.010Z,1019.19
2018-12-24T08:39:46.000Z,1019.20
2018-12-24T08:40:45.987Z,1019.22
2018-12-24T08:41:45.977Z,1019.26
2018-12-24T08:42:45.962Z,1019.23
2018-12-24T08:43:45.953Z,1019.20
2018-12-24T08:44:45.942Z,1019.33
2018-12-24T08:45:45.928Z,1019.29
2018-12-24T08:46:45.919Z,1019.28
2018-12-24T08:47:45.912Z,1019.26
2018-12-24T08:48:45.936Z,1019.30
2018-12-24T08:49:45.886Z,1019.33
2018-12-24T08:50:45.877Z,1019.34
2018-12-24T08:51:45.862Z,1019.35
2018-12-24T08:52:45.848Z,1019.33
2018-12-24T08:53:45.843Z,1019.40
2018-12-24T08:54:45.827Z,1019.44
2018-12-24T08:55:45.814Z,1019.49
2018-12-24T08:56:45.802Z,1019.48
2018-12-24T08:57:45.792Z,1019.46
2018-12-24T08:58:45.778Z,1019.48
2018-12-24T08:59:45.768Z,1019.45
2018-12-24T09:00:45.756Z,1019.52
2018-12-24T09:01:45.749Z,1019.50
2018-12-24T09:02:45.734Z,1019.51
2018-12-24T09:03:45.725Z,1019.56
2018-12-24T09:04:45.772Z,1019.55
2018-12-24T09:05:45.699Z,1019.52
2018-12-24T09:06:45.693Z,1019.55
2018-12-24T09:07:45.678Z,1019.56
2018-12-24T09:08:45.663Z,1019.54
2018-12-24T09:09:45.654Z,1019.55
2018-12-24T09:10:45.643Z,1019.56
2018-12-24T09:11:45.629Z,1019.56
2018-12-24T09:12:45.620Z,1019.57
2018-12-24T09:13:45.612Z,1019.65
2018-12-24T09:14:50.200Z,1019.66
2018-12-24T09:15:45.686Z,1019.66
2018-12-24T09:16:45.586Z,1019.63
2018-12-24T09:17:45.564Z,1019.74
2018-12-24T09:18:45.550Z,1019.69
2018-12-24T09:19:45.551Z,1019.78
2018-12-24T09:20:52.656Z,1019.79
2018-12-24T09:21:45.518Z,1019.82
2018-12-24T09:22:45.506Z,1019.86
2018-12-24T09:23:45.495Z,1019.92
2018-12-24T09:24:45.477Z,1019.92
2018-12-24T09:25:45.471Z,1019.95
2018-12-24T09:26:45.463Z,1020.00
2018-12-24T09:27:45.445Z,1020.03
2018-12-24T09:28:45.438Z,1020.08
2018-12-24T09:29:45.425Z,1020.10
2018-12-24T09:30:45.414Z,1020.14
2018-12-24T09:31:45.403Z,1020.18
2018-12-24T09:32:45.395Z,1020.22
2018-12-24T09:33:45.377Z,1020.24
2018-12-24T09:34:45.369Z,1020.23
2018-12-24T09:35:45.356Z,1020.24
2018-12-24T09:36:45.346Z,1020.28
2018-12-24T09:37:45.331Z,1020.31
2018-12-24T09:38:45.325Z,1020.31
2018-12-24T09:39:45.311Z,1020.31
2018-12-24T09:40:45.297Z,1020.28
2018-12-24T09:41:45.289Z,1020.33
2018-12-24T09:42:45.280Z,1020.31
2018-12-24T09:43:45.266Z,1020.31
2018-12-24T09:44:45.255Z,1020.32
2018-12-24T09:45:45.246Z,1020.30
2018-12-24T09:46:45.233Z,1020.35
2018-12-24T09:47:45.221Z,1020.34
2018-12-24T09:48:45.217Z,1020.33
2018-12-24T09:49:45.200Z,1020.35
2018-12-24T09:50:45.188Z,1020.35
2018-12-24T09:51:45.176Z,1020.37
2018-12-24T09:52:45.169Z,1020.37
2018-12-24T09:53:45.154Z,1020.36
2018-12-24T09:54:45.143Z,1020.37
2018-12-24T09:55:45.131Z,1020.37
2018-12-24T09:56:45.120Z,1020.38
2018-12-24T09:57:45.110Z,1020.40
2018-12-24T09:58:45.097Z,1020.41
2018-12-24T09:59:45.083Z,1020.41
2018-12-24T10:00:45.078Z,1020.48
2018-12-24T10:01:45.066Z,1020.44
2018-12-24T10:02:45.057Z,1020.52
2018-12-24T10:03:45.041Z,1020.52
2018-12-24T10:04:45.032Z,1020.55
2018-12-24T10:05:45.019Z,1020.55
2018-12-24T10:06:45.009Z,1020.56
2018-12-24T10:07:44.997Z,1020.57
2018-12-24T10:08:44.983Z,1020.54
2018-12-24T10:09:44.973Z,1020.54
2018-12-24T10:10:44.963Z,1020.56
2018-12-24T10:11:44.953Z,1020.54
2018-12-24T10:12:44.942Z,1020.55
2018-12-24T10:13:44.928Z,1020.55
2018-12-24T10:14:44.920Z,1020.58
2018-12-24T10:15:44.908Z,1020.57
2018-12-24T10:16:44.896Z,1020.56
2018-12-24T10:17:44.887Z,1020.63
2018-12-24T10:18:44.875Z,1020.60
2018-12-24T10:19:44.862Z,1020.62
2018-12-24T10:20:44.852Z,1020.63
2018-12-24T10:21:44.850Z,1020.68
2018-12-24T10:22:44.830Z,1020.65
2018-12-24T10:23:44.821Z,1020.71
2018-12-24T10:24:44.809Z,1020.71
2018-12-24T10:25:44.798Z,1020.67
2018-12-24T10:26:44.787Z,1020.81
2018-12-24T10:27:44.771Z,1020.76
2018-12-24T10:28:44.762Z,1020.78
2018-12-24T10:29:44.756Z,1020.80
2018-12-24T10:30:44.737Z,1020.81
2018-12-24T10:31:44.731Z,1020.81
2018-12-24T10:32:44.721Z,1020.83
2018-12-24T10:33:44.707Z,1020.82
2018-12-24T10:34:44.694Z,1020.87
2018-12-24T10:35:44.686Z,1020.87
2018-12-24T10:36:44.672Z,1020.84
2018-12-24T10:37:44.659Z,1020.78
2018-12-24T10:38:44.655Z,1020.82
2018-12-24T10:39:44.637Z,1020.78
2018-12-24T10:40:44.627Z,1020.84
2018-12-24T10:41:44.621Z,1020.87
2018-12-24T10:42:44.611Z,1020.85
2018-12-24T10:43:44.590Z,1020.88
2018-12-24T10:44:44.583Z,1020.85
2018-12-24T10:45:44.572Z,1020.88
2018-12-24T10:46:44.559Z,1020.89
2018-12-24T10:47:44.548Z,1020.91
2018-12-24T10:48:46.512Z,1020.90
2018-12-24T10:49:44.526Z,1020.93
2018-12-24T10:50:44.518Z,1020.93
2018-12-24T10:51:44.510Z,1020.95
2018-12-24T10:52:44.491Z,1020.97
2018-12-24T10:53:44.484Z,1021.03
2018-12-24T10:54:44.476Z,1021.05
2018-12-24T10:55:44.461Z,1021.01
2018-12-24T10:56:44.450Z,1021.02
2018-12-24T10:57:44.435Z,1021.08
2018-12-24T10:58:44.423Z,1021.03
2018-12-24T10:59:44.414Z,1021.06
2018-12-24T11:00:44.401Z,1021.05
2018-12-24T11:01:44.789Z,1021.03
2018-12-24T11:02:44.376Z,1021.05
2018-12-24T11:03:44.371Z,1021.08
2018-12-24T11:04:44.364Z,1021.08
2018-12-24T11:05:44.362Z,1021.11
2018-12-24T11:06:44.334Z,1021.06
2018-12-24T11:07:44.324Z,1021.19
2018-12-24T11:08:44.310Z,1021.20
2018-12-24T11:09:44.297Z,1021.17
2018-12-24T11:10:44.291Z,1021.23
2018-12-24T11:11:44.288Z,1021.23
2018-12-24T11:12:44.266Z,1021.23
2018-12-24T11:13:44.260Z,1021.31
2018-12-24T11:14:44.242Z,1021.33
2018-12-24T11:15:44.227Z,1021.28
2018-12-24T11:16:44.221Z,1021.30
2018-12-24T11:17:44.219Z,1021.29
2018-12-24T11:18:44.194Z,1021.37
2018-12-24T11:19:44.183Z,1021.30
2018-12-24T11:20:44.174Z,1021.26
2018-12-24T11:21:44.163Z,1021.30
2018-12-24T11:22:44.151Z,1021.31
2018-12-24T11:23:44.140Z,1021.33
2018-12-24T11:24:44.131Z,1021.33
2018-12-24T11:25:44.115Z,1021.34
2018-12-24T11:26:44.108Z,1021.24
2018-12-24T11:27:44.091Z,1021.24
2018-12-24T11:28:44.081Z,1021.21
2018-12-24T11:29:44.072Z,1021.22
2018-12-24T11:30:44.060Z,1021.21
2018-12-24T11:31:44.046Z,1021.20
2018-12-24T11:32:44.036Z,1021.21
2018-12-24T11:33:44.025Z,1021.18
2018-12-24T11:34:44.013Z,1021.18
2018-12-24T11:35:44.002Z,1021.17
2018-12-24T11:36:43.992Z,1021.20
2018-12-24T11:37:43.981Z,1021.21
2018-12-24T11:38:43.969Z,1021.20
2018-12-24T11:39:43.960Z,1021.15
2018-12-24T11:40:43.944Z,1021.09
2018-12-24T11:41:43.931Z,1021.12
2018-12-24T11:42:43.925Z,1021.11
2018-12-24T11:43:43.911Z,1021.19
2018-12-24T11:44:43.898Z,1021.22
2018-12-24T11:45:43.893Z,1021.28
2018-12-24T11:46:44.474Z,1021.27
2018-12-24T11:47:43.865Z,1021.23
2018-12-24T11:48:43.855Z,1021.23
2018-12-24T11:49:43.842Z,1021.21
2018-12-24T11:50:43.834Z,1021.21
2018-12-24T11:51:43.820Z,1021.25
2018-12-24T11:52:43.810Z,1021.26
2018-12-24T11:53:43.798Z,1021.28
2018-12-24T11:54:43.784Z,1021.27
2018-12-24T11:55:43.776Z,1021.26
2018-12-24T11:56:43.760Z,1021.25
2018-12-24T11:57:43.752Z,1021.29
2018-12-24T11:58:43.743Z,1021.35
2018-12-24T11:59:43.733Z,1021.32
2018-12-24T12:00:43.732Z,1021.31
2018-12-24T12:01:43.713Z,1021.26
2018-12-24T12:02:43.702Z,1021.26
2018-12-24T12:03:43.689Z,1021.34
2018-12-24T12:04:43.674Z,1021.33
2018-12-24T12:05:43.662Z,1021.35